Time;durP1;ratioP1;P1;durP2;ratioP2;P2;SDS_P1;SDS_P2;PMS_P1;PMS_P2;Temp;Humidity;BMP_temperature;BMP_pressure;BME280_temperature;BME280_humidity;BME280_pressure;Samples;Min_cycle;Max_cycle;Signal;HPM_P1;HPM_P2
2022/05/16 00:00:20;;;;;;;;;;;;;;;22.10;38.35;102012.50;2067522;28;804;-55
2022/05/16 00:01:21;;;;;;;;;;;;;;;22.10;38.29;102014.31;2067681;28;808;-55
2022/05/16 00:02:21;;;;;;;;;;;;;;;22.09;38.69;102016.09;2067454;28;979;-56
2022/05/16 00:03:21;;;;;;;;;;;;;;;22.10;38.64;102017.00;2067600;28;1000;-55
2022/05/16 00:04:21;;;;;;;;;;;;;;;22.10;37.91;102019.72;2067440;28;776;-55
2022/05/16 00:05:23;;;;;;;;;;;;;;;22.10;37.98;102012.50;2067596;28;891;-55
2022/05/16 00:06:23;;;;;;;;;;;;;;;22.10;38.65;102022.41;2067439;28;804;-55
2022/05/16 00:07:23;;;;;;;;;;;;;;;22.09;38.18;102026.03;2067655;28;741;-56
2022/05/16 00:08:23;;;;;;;;;;;;;;;22.09;38.22;102015.22;2067370;28;1010;-56
2022/05/16 00:09:24;;;;;;;;;;;;;;;22.08;38.22;102022.44;2067593;28;994;-56
2022/05/16 00:10:24;;;;;;;;;;;;;;;22.06;38.17;102014.38;2067340;28;785;-56
2022/05/16 00:11:24;;;;;;;;;;;;;;;22.06;37.83;102014.38;2067543;28;1310;-56
2022/05/16 00:12:25;;;;;;;;;;;;;;;22.08;37.95;102018.84;2067383;28;667;-56
2022/05/16 00:13:25;;;;;;;;;;;;;;;22.06;38.70;102019.78;2067538;28;784;-55
2022/05/16 00:14:26;;;;;;;;;;;;;;;22.08;38.31;102018.84;2067510;28;812;-56
2022/05/16 00:15:26;;;;;;;;;;;;;;;22.09;38.69;102023.31;2067411;28;1891;-55
2022/05/16 00:16:26;;;;;;;;;;;;;;;22.09;38.14;102017.94;2067320;28;698;-56
2022/05/16 00:17:26;;;;;;;;;;;;;;;22.08;38.22;102018.84;2067520;28;1033;-55
2022/05/16 00:18:26;;;;;;;;;;;;;;;22.06;37.98;102014.38;2067340;28;990;-55
2022/05/16 00:19:27;;;;;;;;;;;;;;;22.06;38.50;102025.16;2067482;28;1018;-55
2022/05/16 00:20:27;;;;;;;;;;;;;;;22.07;38.50;102020.69;2067277;28;998;-55
2022/05/16 00:21:27;;;;;;;;;;;;;;;22.07;37.75;102020.69;2067476;28;994;-55
2022/05/16 00:22:27;;;;;;;;;;;;;;;22.06;37.59;102027.00;2067267;28;982;-56
2022/05/16 00:23:27;;;;;;;;;;;;;;;22.04;38.28;102029.72;2067484;28;824;-55
2022/05/16 00:24:28;;;;;;;;;;;;;;;22.03;37.75;102027.06;2067349;28;844;-55
2022/05/16 00:25:28;;;;;;;;;;;;;;;22.03;37.74;102032.44;2067444;28;797;-55
2022/05/16 00:26:29;;;;;;;;;;;;;;;22.02;37.80;102031.53;2066698;28;2265;-55
2022/05/16 00:27:34;;;;;;;;;;;;;;;22.03;38.57;102033.31;2066668;28;1198;-55
2022/05/16 00:28:34;;;;;;;;;;;;;;;22.03;37.73;102029.75;2067617;28;757;-56
2022/05/16 00:29:34;;;;;;;;;;;;;;;22.02;38.58;102034.25;2067338;28;832;-55
2022/05/16 00:30:34;;;;;;;;;;;;;;;22.03;37.67;102030.63;2067345;28;953;-55
2022/05/16 00:31:35;;;;;;;;;;;;;;;22.02;37.75;102034.25;2066670;28;955;-55
2022/05/16 00:32:35;;;;;;;;;;;;;;;22.02;37.86;102033.38;2066827;28;812;-55
2022/05/16 00:33:35;;;;;;;;;;;;;;;22.02;37.59;102030.69;2066741;28;792;-55
2022/05/16 00:34:36;;;;;;;;;;;;;;;22.02;37.61;102038.78;2067239;28;867;-55
2022/05/16 00:35:37;;;;;;;;;;;;;;;22.02;37.74;102033.38;2067223;28;1918;-55
2022/05/16 00:36:37;;;;;;;;;;;;;;;22.02;37.90;102034.25;2067399;28;991;-55
2022/05/16 00:37:37;;;;;;;;;;;;;;;22.02;37.82;102039.63;2067195;28;1236;-56
2022/05/16 00:38:37;;;;;;;;;;;;;;;22.02;37.57;102030.69;2067263;28;812;-55
2022/05/16 00:39:37;;;;;;;;;;;;;;;22.02;38.50;102033.38;2067243;28;855;-56
2022/05/16 00:40:38;;;;;;;;;;;;;;;22.01;37.90;102037.88;2067232;28;911;-55
2022/05/16 00:41:38;;;;;;;;;;;;;;;22.01;37.67;102034.28;2066596;28;882;-56
2022/05/16 00:42:39;;;;;;;;;;;;;;;22.02;37.90;102038.78;2066612;28;835;-55
2022/05/16 00:43:44;;;;;;;;;;;;;;;22.02;37.78;102044.16;2067229;28;982;-55
2022/05/16 00:44:44;;;;;;;;;;;;;;;22.02;37.55;102041.47;2067226;28;788;-55
2022/05/16 00:45:45;;;;;;;;;;;;;;;22.01;38.24;102045.97;2067206;28;1045;-55
2022/05/16 00:46:47;;;;;;;;;;;;;;;22.01;37.65;102037.88;2067185;28;864;-55
2022/05/16 00:47:47;;;;;;;;;;;;;;;22.02;38.11;102042.34;2067157;28;859;-55
2022/05/16 00:48:47;;;;;;;;;;;;;;;22.00;37.67;102046.88;2067246;28;1057;-55
2022/05/16 00:49:49;;;;;;;;;;;;;;;21.99;37.87;102047.78;2067164;28;1218;-55
2022/05/16 00:50:49;;;;;;;;;;;;;;;22.00;38.24;102043.31;2067262;28;1002;-55
2022/05/16 00:51:54;;;;;;;;;;;;;;;22.00;38.46;102049.56;2066421;28;819;-55
2022/05/16 00:52:54;;;;;;;;;;;;;;;22.00;37.83;102040.59;2066680;28;804;-55
2022/05/16 00:54:08;;;;;;;;;;;;;;;22.00;37.82;102046.00;2067093;28;780;-55
2022/05/16 00:55:10;;;;;;;;;;;;;;;21.99;37.76;102037.00;2067335;28;1045;-55
2022/05/16 00:56:11;;;;;;;;;;;;;;;21.99;37.41;102039.69;2066999;28;1894;-55
2022/05/16 00:57:15;;;;;;;;;;;;;;;22.00;38.16;102048.72;2067302;28;973;-55
2022/05/16 00:58:16;;;;;;;;;;;;;;;21.99;37.32;102045.09;2066904;28;1855;-56
2022/05/16 00:59:18;;;;;;;;;;;;;;;21.99;37.30;102042.41;2067198;28;851;-56
2022/05/16 01:00:20;;;;;;;;;;;;;;;21.97;38.07;102041.53;2066458;28;1458;-56
2022/05/16 01:05:23;;;;;;;;;;;;;;;21.97;37.29;102046.94;2067307;28;605;-55
2022/05/16 01:06:23;;;;;;;;;;;;;;;21.97;37.34;102046.94;2067006;28;1022;-55
2022/05/16 01:07:31;;;;;;;;;;;;;;;21.98;37.64;102045.16;2067085;28;982;-55
2022/05/16 01:08:32;;;;;;;;;;;;;;;21.98;37.57;102048.72;2067068;28;804;-55
2022/05/16 01:09:32;;;;;;;;;;;;;;;21.97;38.00;102046.94;2067140;28;978;-56
2022/05/16 01:10:33;;;;;;;;;;;;;;;21.98;37.25;102050.53;2066958;28;985;-55
2022/05/16 01:11:35;;;;;;;;;;;;;;;21.98;38.04;102054.13;2067014;28;878;-56
2022/05/16 01:12:36;;;;;;;;;;;;;;;21.98;37.24;102056.81;2066318;28;1033;-56
2022/05/16 01:13:37;;;;;;;;;;;;;;;21.97;38.07;102057.72;2066390;28;970;-55
2022/05/16 01:14:49;;;;;;;;;;;;;;;21.97;37.11;102055.03;2067021;28;841;-55
2022/05/16 01:15:50;;;;;;;;;;;;;;;21.97;38.03;102051.47;2066895;28;1894;-56
2022/05/16 01:16:50;;;;;;;;;;;;;;;21.97;37.91;102054.16;2067014;28;842;-56
2022/05/16 01:17:50;;;;;;;;;;;;;;;21.98;37.86;102058.63;2066845;28;970;-55
2022/05/16 01:18:50;;;;;;;;;;;;;;;21.98;37.87;102056.81;2067025;28;1060;-56
2022/05/16 01:19:50;;;;;;;;;;;;;;;21.97;37.15;102062.25;2066171;28;769;-55
2022/05/16 01:21:03;;;;;;;;;;;;;;;21.96;37.25;102058.66;2066419;28;1006;-55
2022/05/16 01:22:06;;;;;;;;;;;;;;;21.96;37.31;102055.94;2066865;28;874;-55
2022/05/16 01:23:06;;;;;;;;;;;;;;;21.96;37.47;102055.94;2066984;28;974;-55
2022/05/16 01:24:10;;;;;;;;;;;;;;;21.96;37.49;102058.66;2066806;28;629;-55
2022/05/16 01:25:21;;;;;;;;;;;;;;;21.96;38.03;102055.94;2066840;28;927;-56
2022/05/16 01:26:24;;;;;;;;;;;;;;;21.96;36.96;102060.47;2066951;28;800;-55
2022/05/16 01:27:25;;;;;;;;;;;;;;;21.97;37.13;102054.16;2066841;28;1261;-55
2022/05/16 01:28:25;;;;;;;;;;;;;;;21.96;37.79;102065.88;2066830;28;905;-55
2022/05/16 01:29:25;;;;;;;;;;;;;;;21.95;37.06;102059.56;2066931;28;938;-56
2022/05/16 01:30:33;;;;;;;;;;;;;;;21.96;36.97;102071.25;2066725;28;962;-56
2022/05/16 01:31:33;;;;;;;;;;;;;;;21.96;36.78;102064.03;2066900;28;997;-55
2022/05/16 01:32:33;;;;;;;;;;;;;;;21.96;36.91;102064.03;2066879;28;796;-55
2022/05/16 01:33:34;;;;;;;;;;;;;;;21.96;36.81;102061.34;2066165;28;947;-56
2022/05/16 01:34:34;;;;;;;;;;;;;;;21.95;36.79;102061.41;2066235;28;805;-55
2022/05/16 01:35:34;;;;;;;;;;;;;;;21.95;37.48;102064.09;2066707;28;1910;-55
2022/05/16 01:36:34;;;;;;;;;;;;;;;21.96;36.79;102068.56;2066847;28;1026;-55
2022/05/16 01:38:54;;;;;;;;;;;;;;;21.96;36.93;102066.75;2066915;28;606;-55
2022/05/16 01:39:54;;;;;;;;;;;;;;;21.97;37.69;102067.66;2066775;28;1065;-55
2022/05/16 01:40:54;;;;;;;;;;;;;;;21.96;37.18;102065.88;2066982;28;672;-55
2022/05/16 01:41:54;;;;;;;;;;;;;;;21.96;37.65;102076.66;2066731;28;1002;-55
2022/05/16 01:42:54;;;;;;;;;;;;;;;21.95;36.68;102070.38;2066839;28;843;-55
2022/05/16 01:43:58;;;;;;;;;;;;;;;21.94;37.43;102071.28;2066671;28;990;-55
2022/05/16 01:44:58;;;;;;;;;;;;;;;21.94;37.56;102073.97;2066464;28;949;-55
2022/05/16 01:45:58;;;;;;;;;;;;;;;21.95;36.89;102075.75;2066221;28;934;-56
2022/05/16 01:46:59;;;;;;;;;;;;;;;21.95;37.43;102075.75;2066789;28;899;-56
2022/05/16 01:47:59;;;;;;;;;;;;;;;21.95;37.03;102074.88;2066682;28;797;-55
2022/05/16 01:48:59;;;;;;;;;;;;;;;21.93;36.66;102066.81;2066777;28;855;-56
2022/05/16 01:49:59;;;;;;;;;;;;;;;21.94;36.79;102075.81;2066673;28;840;-55
2022/05/16 01:51:01;;;;;;;;;;;;;;;21.94;36.91;102073.09;2066251;28;784;-55
2022/05/16 01:52:02;;;;;;;;;;;;;;;21.94;37.38;102070.41;2066137;28;836;-55
2022/05/16 01:53:02;;;;;;;;;;;;;;;21.93;37.20;102064.09;2066715;28;982;-55
2022/05/16 01:54:03;;;;;;;;;;;;;;;21.94;36.91;102073.09;2065962;28;800;-55
2022/05/16 01:55:04;;;;;;;;;;;;;;;21.93;36.94;102069.50;2066233;28;852;-56
2022/05/16 01:56:04;;;;;;;;;;;;;;;21.93;36.79;102072.19;2065858;28;1890;-55
2022/05/16 01:57:04;;;;;;;;;;;;;;;21.94;36.99;102075.81;2066180;28;820;-55
2022/05/16 01:58:05;;;;;;;;;;;;;;;21.93;36.45;102074.91;2066612;28;840;-56
2022/05/16 01:59:05;;;;;;;;;;;;;;;21.94;36.56;102073.97;2066810;28;993;-55
2022/05/16 02:00:09;;;;;;;;;;;;;;;21.94;37.43;102071.28;2066558;28;878;-55
2022/05/16 02:01:10;;;;;;;;;;;;;;;21.94;37.34;102065.00;2066784;28;886;-55
2022/05/16 02:02:10;;;;;;;;;;;;;;;21.93;36.98;102072.19;2066592;28;1037;-55
2022/05/16 02:03:11;;;;;;;;;;;;;;;21.93;36.54;102069.50;2066755;28;855;-55
2022/05/16 02:04:12;;;;;;;;;;;;;;;21.93;36.52;102074.91;2066577;28;808;-55
2022/05/16 02:05:16;;;;;;;;;;;;;;;21.92;36.51;102074.03;2066055;28;883;-55
2022/05/16 02:06:17;;;;;;;;;;;;;;;21.93;36.51;102074.91;2065878;28;1772;-56
2022/05/16 02:07:17;;;;;;;;;;;;;;;21.92;36.83;102065.94;2066682;28;958;-56
2022/05/16 02:08:17;;;;;;;;;;;;;;;21.92;36.81;102073.13;2066717;28;850;-55
2022/05/16 02:09:17;;;;;;;;;;;;;;;21.92;37.26;102070.41;2066719;28;784;-56
2022/05/16 02:10:19;;;;;;;;;;;;;;;21.93;36.63;102069.50;2066426;28;1041;-55
2022/05/16 02:11:19;;;;;;;;;;;;;;;21.92;37.30;102073.13;2066686;28;887;-55
2022/05/16 02:12:20;;;;;;;;;;;;;;;21.91;37.28;102068.63;2066468;28;708;-56
2022/05/16 02:13:20;;;;;;;;;;;;;;;21.92;36.59;102075.81;2066796;28;886;-56
2022/05/16 02:14:21;;;;;;;;;;;;;;;21.91;36.60;102069.53;2066488;28;1034;-55
2022/05/16 02:15:22;;;;;;;;;;;;;;;21.91;36.48;102071.34;2066549;28;1910;-56
2022/05/16 02:16:22;;;;;;;;;;;;;;;21.92;36.91;102070.41;2066653;28;796;-55
2022/05/16 02:17:23;;;;;;;;;;;;;;;21.92;36.71;102068.63;2066639;28;848;-55
2022/05/16 02:18:23;;;;;;;;;;;;;;;21.92;36.55;102073.13;2065783;28;801;-56
2022/05/16 02:19:23;;;;;;;;;;;;;;;21.92;36.64;102070.41;2066078;28;883;-55
2022/05/16 02:20:23;;;;;;;;;;;;;;;21.91;37.28;102069.53;2066451;28;1030;-56
2022/05/16 02:25:20;;;;;;;;;;;;;;;21.92;36.70;102078.50;2066689;28;658;-55
2022/05/16 02:26:20;;;;;;;;;;;;;;;21.93;36.73;102077.59;2066493;28;986;-56
2022/05/16 02:27:21;;;;;;;;;;;;;;;21.90;37.17;102075.88;2066461;28;1281;-55
2022/05/16 02:28:21;;;;;;;;;;;;;;;21.91;37.16;102068.63;2066409;28;847;-55
2022/05/16 02:29:22;;;;;;;;;;;;;;;21.91;37.13;102068.63;2066542;28;1102;-56
2022/05/16 02:30:23;;;;;;;;;;;;;;;21.90;36.91;102073.16;2066404;28;789;-56
2022/05/16 02:31:23;;;;;;;;;;;;;;;21.91;36.94;102076.72;2066714;28;733;-56
2022/05/16 02:32:23;;;;;;;;;;;;;;;21.90;36.23;102078.56;2066389;28;761;-56
2022/05/16 02:33:23;;;;;;;;;;;;;;;21.89;36.31;102071.38;2066613;28;796;-55
2022/05/16 02:34:24;;;;;;;;;;;;;;;21.91;36.59;102079.44;2066365;28;764;-56
2022/05/16 02:35:24;;;;;;;;;;;;;;;21.90;36.34;102075.88;2066432;28;1974;-55
2022/05/16 02:36:24;;;;;;;;;;;;;;;21.90;36.56;102077.66;2066401;28;919;-55
2022/05/16 02:37:24;;;;;;;;;;;;;;;21.90;36.50;102083.06;2066505;28;1306;-55
2022/05/16 02:38:24;;;;;;;;;;;;;;;21.91;36.82;102090.22;2066519;28;914;-55
2022/05/16 02:39:25;;;;;;;;;;;;;;;21.90;36.18;102085.75;2066517;28;986;-55
2022/05/16 02:40:26;;;;;;;;;;;;;;;21.89;36.57;102095.66;2066456;28;978;-55
2022/05/16 02:41:27;;;;;;;;;;;;;;;21.89;36.31;102095.66;2066615;28;945;-56
2022/05/16 02:42:27;;;;;;;;;;;;;;;21.91;36.22;102095.63;2066487;28;954;-55
2022/05/16 02:43:27;;;;;;;;;;;;;;;21.89;36.43;102092.06;2066527;28;998;-55
2022/05/16 02:44:27;;;;;;;;;;;;;;;21.89;36.51;102097.44;2065656;28;863;-55
2022/05/16 02:45:29;;;;;;;;;;;;;;;21.89;36.70;102092.06;2065959;28;800;-55
2022/05/16 02:46:30;;;;;;;;;;;;;;;21.89;36.93;102098.34;2066375;28;887;-56
2022/05/16 02:47:31;;;;;;;;;;;;;;;21.89;36.29;102103.75;2066410;28;800;-56
2022/05/16 02:48:31;;;;;;;;;;;;;;;21.89;36.85;102097.44;2066426;28;874;-55
2022/05/16 02:49:31;;;;;;;;;;;;;;;21.89;36.28;102090.28;2066453;28;1014;-55
2022/05/16 02:50:32;;;;;;;;;;;;;;;21.89;36.70;102089.38;2066566;28;981;-55
2022/05/16 02:51:32;;;;;;;;;;;;;;;21.88;36.11;102093.88;2066426;28;930;-56
2022/05/16 02:52:33;;;;;;;;;;;;;;;21.89;36.57;102094.75;2066461;28;824;-55
2022/05/16 02:53:33;;;;;;;;;;;;;;;21.88;36.50;102084.88;2066585;28;978;-56
2022/05/16 02:54:33;;;;;;;;;;;;;;;21.89;36.09;102098.34;2066405;28;762;-55
2022/05/16 02:55:33;;;;;;;;;;;;;;;21.88;36.17;102093.88;2066534;28;1898;-56
2022/05/16 02:56:34;;;;;;;;;;;;;;;21.89;36.89;102097.44;2066621;28;863;-56
2022/05/16 02:57:34;;;;;;;;;;;;;;;21.88;36.13;102091.19;2068089;28;990;-55
2022/05/16 02:58:34;;;;;;;;;;;;;;;21.88;36.58;102082.19;2068005;28;950;-55
2022/05/16 02:59:35;;;;;;;;;;;;;;;21.88;36.10;102095.69;2067993;28;879;-55
2022/05/16 03:00:36;;;;;;;;;;;;;;;21.86;36.66;102022.88;2068053;28;859;-55
2022/05/16 03:01:36;;;;;;;;;;;;;;;21.86;36.60;102025.59;2068181;28;953;-56
2022/05/16 03:02:36;;;;;;;;;;;;;;;21.88;36.15;102026.44;2068059;28;785;-55
2022/05/16 03:03:38;;;;;;;;;;;;;;;21.88;35.83;102026.44;2067994;28;848;-56
2022/05/16 03:04:38;;;;;;;;;;;;;;;21.88;35.89;102030.94;2068056;28;792;-56
2022/05/16 03:05:38;;;;;;;;;;;;;;;21.87;36.58;102013.88;2068006;28;929;-56
2022/05/16 03:06:38;;;;;;;;;;;;;;;21.88;36.66;102023.75;2067966;28;994;-55
2022/05/16 03:07:39;;;;;;;;;;;;;;;21.87;36.01;102073.22;2068005;28;785;-55
2022/05/16 03:08:39;;;;;;;;;;;;;;;21.88;35.97;102130.75;2067994;28;807;-55
2022/05/16 03:09:39;;;;;;;;;;;;;;;21.88;36.61;102106.47;2067942;28;800;-56
2022/05/16 03:10:40;;;;;;;;;;;;;;;21.88;36.38;102109.16;2067914;28;986;-55
2022/05/16 03:11:40;;;;;;;;;;;;;;;21.88;36.57;102099.28;2067931;28;819;-55
2022/05/16 03:12:42;;;;;;;;;;;;;;;21.88;36.11;102095.69;2067885;28;807;-56
2022/05/16 03:13:42;;;;;;;;;;;;;;;21.89;36.72;102105.56;2067902;28;823;-55
2022/05/16 03:14:42;;;;;;;;;;;;;;;21.88;35.99;102107.38;2067878;28;1041;-56
2022/05/16 03:15:42;;;;;;;;;;;;;;;21.88;35.89;102107.38;2067836;28;1968;-55
2022/05/16 03:16:43;;;;;;;;;;;;;;;21.87;36.40;102100.19;2067880;28;839;-55
2022/05/16 03:17:43;;;;;;;;;;;;;;;21.86;36.31;102101.13;2067869;28;1025;-55
2022/05/16 03:18:43;;;;;;;;;;;;;;;21.86;36.03;102105.59;2067863;28;986;-55
2022/05/16 03:19:44;;;;;;;;;;;;;;;21.86;36.33;102103.81;2067943;28;867;-55
2022/05/16 03:20:44;;;;;;;;;;;;;;;21.85;36.31;102099.34;2067848;28;779;-57
2022/05/16 03:21:44;;;;;;;;;;;;;;;21.86;36.31;102097.50;2067866;28;780;-57
2022/05/16 03:22:44;;;;;;;;;;;;;;;21.85;36.05;102084.94;2067806;28;912;-55
2022/05/16 03:23:45;;;;;;;;;;;;;;;21.86;36.84;102090.31;2067843;28;784;-55
2022/05/16 03:24:45;;;;;;;;;;;;;;;21.85;36.90;102085.84;2067847;28;1041;-55
2022/05/16 03:25:45;;;;;;;;;;;;;;;21.85;36.16;102093.94;2067823;28;792;-56
2022/05/16 03:26:45;;;;;;;;;;;;;;;21.85;35.87;102095.72;2067634;28;1224;-56
2022/05/16 03:27:45;;;;;;;;;;;;;;;21.86;35.84;102103.81;2067854;28;864;-55
2022/05/16 03:28:46;;;;;;;;;;;;;;;21.87;36.67;102089.41;2067851;28;855;-56
2022/05/16 03:29:46;;;;;;;;;;;;;;;21.88;36.66;102106.47;2067099;28;1014;-56
2022/05/16 03:30:48;;;;;;;;;;;;;;;21.87;35.72;102099.28;2067233;28;855;-56
2022/05/16 03:31:48;;;;;;;;;;;;;;;21.85;36.52;102079.53;2067078;28;1447;-55
2022/05/16 03:32:49;;;;;;;;;;;;;;;21.85;36.09;102093.03;2067371;28;911;-55
2022/05/16 03:33:49;;;;;;;;;;;;;;;21.85;36.48;102093.03;2067769;28;800;-55
2022/05/16 03:34:50;;;;;;;;;;;;;;;21.86;35.77;102102.91;2067808;28;902;-57
2022/05/16 03:35:55;;;;;;;;;;;;;;;21.86;36.11;102097.50;2067623;28;1919;-56
2022/05/16 03:36:55;;;;;;;;;;;;;;;21.86;36.65;102098.41;2067875;28;828;-55
2022/05/16 03:37:55;;;;;;;;;;;;;;;21.86;35.96;102092.13;2067660;28;975;-55
2022/05/16 03:41:34;;;;;;;;;;;;;;;21.85;36.05;102085.84;2067782;28;697;-55
2022/05/16 03:42:34;;;;;;;;;;;;;;;21.85;35.99;102096.63;2067123;28;876;-55
2022/05/16 03:43:35;;;;;;;;;;;;;;;21.85;36.38;102096.63;2067084;28;997;-56
2022/05/16 03:44:35;;;;;;;;;;;;;;;21.85;36.71;102095.72;2067724;28;788;-55
2022/05/16 03:45:36;;;;;;;;;;;;;;;21.84;36.30;102094.84;2067664;28;852;-56
2022/05/16 03:46:36;;;;;;;;;;;;;;;21.85;36.10;102096.63;2066968;28;860;-55
2022/05/16 03:47:36;;;;;;;;;;;;;;;21.86;36.08;102100.22;2067067;28;1001;-56
2022/05/16 03:48:37;;;;;;;;;;;;;;;21.86;36.58;102097.50;2067667;28;876;-56
2022/05/16 03:49:38;;;;;;;;;;;;;;;21.83;36.23;102093.06;2067026;28;673;-55
2022/05/16 03:50:39;;;;;;;;;;;;;;;21.85;36.09;102098.44;2067023;28;788;-55
2022/05/16 03:51:40;;;;;;;;;;;;;;;21.85;36.19;102093.94;2067654;28;1005;-56
2022/05/16 03:52:40;;;;;;;;;;;;;;;21.86;36.70;102092.13;2066915;28;887;-55
2022/05/16 03:53:46;;;;;;;;;;;;;;;21.85;36.35;102093.94;2067029;28;849;-56
2022/05/16 03:54:46;;;;;;;;;;;;;;;21.85;36.66;102095.72;2067688;28;728;-56
2022/05/16 03:55:46;;;;;;;;;;;;;;;21.85;36.17;102090.34;2067520;28;1894;-55
2022/05/16 03:56:46;;;;;;;;;;;;;;;21.86;36.26;102094.81;2067672;28;764;-56
2022/05/16 03:57:47;;;;;;;;;;;;;;;21.85;35.74;102101.13;2066821;28;857;-56
2022/05/16 03:58:47;;;;;;;;;;;;;;;21.85;36.60;102093.03;2067137;28;737;-55
2022/05/16 03:59:48;;;;;;;;;;;;;;;21.85;36.08;102096.63;2067518;28;816;-56
2022/05/16 04:00:48;;;;;;;;;;;;;;;21.83;36.59;102071.50;2067700;28;800;-56
2022/05/16 04:01:49;;;;;;;;;;;;;;;22.56;35.22;102099.72;2067472;28;970;-56
2022/05/16 04:02:49;;;;;;;;;;;;;;;23.37;33.23;102060.00;2067642;28;888;-56
2022/05/16 04:03:49;;;;;;;;;;;;;;;23.90;32.10;102039.63;2067478;28;935;-55
2022/05/16 04:04:50;;;;;;;;;;;;;;;24.16;31.53;102048.84;2067702;28;879;-54
2022/05/16 04:05:50;;;;;;;;;;;;;;;24.42;30.84;102084.16;2067478;28;1033;-55
2022/05/16 04:06:51;;;;;;;;;;;;;;;24.69;30.38;102088.75;2067635;28;804;-55
2022/05/16 04:07:51;;;;;;;;;;;;;;;24.89;30.72;102090.88;2066488;28;1327;-55
2022/05/16 04:08:52;;;;;;;;;;;;;;;25.07;30.42;102096.63;2066237;28;1119;-55
2022/05/16 04:09:52;;;;;;;;;;;;;;;25.30;29.86;102114.84;2067450;28;768;-55
2022/05/16 04:10:52;;;;;;;;;;;;;;;25.47;29.26;102102.56;2067508;28;652;-55
2022/05/16 04:11:53;;;;;;;;;;;;;;;25.68;29.54;102114.50;2067382;28;765;-55
2022/05/16 04:12:54;;;;;;;;;;;;;;;25.88;28.96;102111.97;2067581;28;675;-55
2022/05/16 04:13:54;;;;;;;;;;;;;;;25.99;28.59;102118.81;2066707;28;874;-56
2022/05/16 04:14:54;;;;;;;;;;;;;;;26.11;28.65;102107.50;2066977;28;1017;-55
2022/05/16 04:15:55;;;;;;;;;;;;;;;26.30;27.65;102094.13;2067295;28;2215;-55
2022/05/16 04:16:55;;;;;;;;;;;;;;;26.42;27.90;102097.31;2067543;28;1049;-55
2022/05/16 04:17:55;;;;;;;;;;;;;;;26.59;27.37;102080.34;2067498;28;745;-55
2022/05/16 04:18:55;;;;;;;;;;;;;;;26.61;27.28;102083.91;2067482;28;836;-55
2022/05/16 04:19:55;;;;;;;;;;;;;;;26.74;27.50;102085.19;2067332;28;1041;-55
2022/05/16 04:20:55;;;;;;;;;;;;;;;26.79;27.31;102082.25;2067468;28;982;-55
2022/05/16 04:21:55;;;;;;;;;;;;;;;26.95;27.48;102098.91;2067320;28;661;-55
2022/05/16 04:22:56;;;;;;;;;;;;;;;27.06;27.28;102090.28;2067433;28;868;-55
2022/05/16 04:23:56;;;;;;;;;;;;;;;27.17;26.63;102089.81;2067268;28;1038;-55
2022/05/16 04:24:56;;;;;;;;;;;;;;;27.21;26.41;102089.66;2066875;28;954;-56
2022/05/16 04:25:56;;;;;;;;;;;;;;;27.41;26.74;102087.00;2066790;28;839;-55
2022/05/16 04:26:57;;;;;;;;;;;;;;;27.55;26.33;102098.22;2067336;28;1406;-55
2022/05/16 04:27:57;;;;;;;;;;;;;;;27.58;26.33;102098.09;2067304;28;983;-55
2022/05/16 04:28:57;;;;;;;;;;;;;;;27.64;26.07;102092.38;2067439;28;975;-55
2022/05/16 04:29:57;;;;;;;;;;;;;;;27.66;26.12;102084.13;2067315;28;816;-55
2022/05/16 04:30:58;;;;;;;;;;;;;;;27.67;25.74;102091.34;2067384;28;848;-55
2022/05/16 04:31:58;;;;;;;;;;;;;;;27.82;25.68;102084.31;2067262;28;1049;-55
2022/05/16 04:32:58;;;;;;;;;;;;;;;28.02;25.47;102080.69;2067428;28;883;-55
2022/05/16 04:33:58;;;;;;;;;;;;;;;27.94;25.86;102088.34;2067188;28;990;-55
2022/05/16 04:34:58;;;;;;;;;;;;;;;27.95;25.81;102082.81;2067354;28;761;-55
2022/05/16 04:35:59;;;;;;;;;;;;;;;27.99;25.25;102078.09;2067113;28;1988;-55
2022/05/16 04:36:59;;;;;;;;;;;;;;;28.00;25.64;102081.72;2067336;28;1189;-55
2022/05/16 04:37:59;;;;;;;;;;;;;;;28.23;25.24;102086.13;2067186;28;860;-55
2022/05/16 04:38:59;;;;;;;;;;;;;;;28.28;25.20;102091.34;2067321;28;1018;-55
2022/05/16 04:40:00;;;;;;;;;;;;;;;28.26;24.97;102092.31;2066498;28;947;-56
2022/05/16 04:43:39;;;;;;;;;;;;;;;28.39;24.87;102087.19;2067308;28;615;-56
2022/05/16 04:44:39;;;;;;;;;;;;;;;28.50;25.07;102093.97;2067303;28;812;-56
2022/05/16 04:45:39;;;;;;;;;;;;;;;28.47;24.56;102091.41;2067187;28;757;-56
2022/05/16 04:46:39;;;;;;;;;;;;;;;28.41;24.87;102098.00;2067176;28;847;-55
2022/05/16 04:47:40;;;;;;;;;;;;;;;28.54;24.79;102096.47;2067258;28;805;-55
2022/05/16 04:48:40;;;;;;;;;;;;;;;28.47;24.44;102092.25;2067211;28;807;-55
2022/05/16 04:49:40;;;;;;;;;;;;;;;28.60;24.56;102098.00;2067194;28;977;-56
2022/05/16 04:50:40;;;;;;;;;;;;;;;28.64;24.55;102090.56;2067275;28;705;-55
2022/05/16 04:51:40;;;;;;;;;;;;;;;28.58;24.62;102099.91;2066483;28;935;-56
2022/05/16 04:52:41;;;;;;;;;;;;;;;28.56;24.41;102107.28;2066579;28;998;-56
2022/05/16 04:53:41;;;;;;;;;;;;;;;28.57;24.51;102105.44;2067131;28;784;-56
2022/05/16 04:54:41;;;;;;;;;;;;;;;28.67;24.41;102101.34;2067181;28;1009;-55
2022/05/16 04:55:41;;;;;;;;;;;;;;;28.73;24.64;102103.75;2067032;28;1907;-56
2022/05/16 04:56:42;;;;;;;;;;;;;;;28.76;24.61;102109.09;2067126;28;982;-56
2022/05/16 04:57:42;;;;;;;;;;;;;;;28.84;23.95;102112.34;2067084;28;786;-55
2022/05/16 04:58:42;;;;;;;;;;;;;;;28.74;24.06;102107.34;2067029;28;981;-56
2022/05/16 04:59:42;;;;;;;;;;;;;;;28.70;24.50;102104.78;2067127;28;986;-55
2022/05/16 05:00:42;;;;;;;;;;;;;;;28.78;24.88;102123.53;2066401;28;1205;-55
2022/05/16 05:01:43;;;;;;;;;;;;;;;28.69;24.31;102108.47;2066482;28;777;-55
2022/05/16 05:02:44;;;;;;;;;;;;;;;28.80;24.69;102112.53;2067048;28;997;-55
2022/05/16 05:03:44;;;;;;;;;;;;;;;28.86;24.54;102112.25;2066564;28;757;-56
2022/05/16 05:04:44;;;;;;;;;;;;;;;28.85;24.23;102108.63;2066517;28;868;-55
2022/05/16 05:05:45;;;;;;;;;;;;;;;28.79;24.36;102106.22;2067043;28;871;-56
2022/05/16 05:06:45;;;;;;;;;;;;;;;28.74;24.18;102123.72;2067044;28;1025;-56
2022/05/16 05:07:45;;;;;;;;;;;;;;;28.86;23.94;102112.25;2067003;28;1014;-56
2022/05/16 05:08:45;;;;;;;;;;;;;;;28.84;24.46;102117.78;2067187;28;871;-56
2022/05/16 05:15:02;;;;;;;;;;;;;;;28.93;24.51;102100.09;2067110;28;598;-56
2022/05/16 05:16:06;;;;;;;;;;;;;;;28.87;24.32;102094.94;2066866;28;1890;-56
2022/05/16 05:17:07;;;;;;;;;;;;;;;29.07;23.72;102090.34;2067075;28;1002;-56
2022/05/16 05:18:07;;;;;;;;;;;;;;;29.13;23.49;102098.22;2066886;28;835;-56
2022/05/16 05:19:08;;;;;;;;;;;;;;;29.08;23.68;102103.88;2067087;28;839;-56
2022/05/16 05:20:13;;;;;;;;;;;;;;;29.06;23.62;102105.78;2066674;28;935;-56
2022/05/16 05:21:13;;;;;;;;;;;;;;;28.98;24.25;102108.03;2067195;28;783;-56
2022/05/16 05:22:14;;;;;;;;;;;;;;;29.10;24.07;102107.41;2066857;28;870;-56
2022/05/16 05:23:14;;;;;;;;;;;;;;;29.02;23.79;102109.63;2066956;28;884;-56
2022/05/16 05:24:15;;;;;;;;;;;;;;;29.01;24.29;102107.88;2066804;28;979;-56
2022/05/16 05:25:17;;;;;;;;;;;;;;;29.12;24.04;102116.41;2067026;28;1065;-55
2022/05/16 05:26:17;;;;;;;;;;;;;;;29.11;24.27;102109.19;2066977;28;978;-56
2022/05/16 05:27:17;;;;;;;;;;;;;;;29.12;23.96;102112.81;2066800;28;1191;-56
2022/05/16 05:28:18;;;;;;;;;;;;;;;29.05;24.03;102112.22;2066782;28;891;-56
2022/05/16 05:29:19;;;;;;;;;;;;;;;29.25;23.86;102107.59;2066996;28;851;-56
2022/05/16 05:30:22;;;;;;;;;;;;;;;29.26;23.56;102109.38;2066813;28;784;-55
2022/05/16 05:31:25;;;;;;;;;;;;;;;29.33;23.87;102104.47;2067036;28;978;-56
2022/05/16 05:32:25;;;;;;;;;;;;;;;29.26;23.84;102107.50;2066815;28;808;-56
2022/05/16 05:33:25;;;;;;;;;;;;;;;29.33;23.97;102108.09;2066927;28;982;-55
2022/05/16 05:34:26;;;;;;;;;;;;;;;29.35;23.71;102106.19;2066770;28;942;-56
2022/05/16 05:35:26;;;;;;;;;;;;;;;29.31;23.57;102104.56;2066834;28;1990;-56
2022/05/16 05:36:26;;;;;;;;;;;;;;;29.36;23.51;102105.22;2066749;28;982;-56
2022/05/16 05:37:26;;;;;;;;;;;;;;;29.39;23.27;102090.53;2066925;28;851;-55
2022/05/16 05:38:27;;;;;;;;;;;;;;;29.21;23.26;102100.53;2066725;28;777;-56
2022/05/16 05:39:27;;;;;;;;;;;;;;;29.22;23.87;102099.56;2066890;28;800;-55